sensor_id;sensor_type;location;lat;lon;timestamp;temperature;humidity
4487;DHT22;2256;48.740;9.106;2023-06-14T00:02:24;13.90;85.30
4487;DHT22;2256;48.740;9.106;2023-06-14T00:04:51;13.90;86.10
4487;DHT22;2256;48.740;9.106;2023-06-14T00:07:18;13.80;86.80
4487;DHT22;2256;48.740;9.106;2023-06-14T00:09:45;13.80;86.70
4487;DHT22;2256;48.740;9.106;2023-06-14T00:12:13;13.80;87.10
4487;DHT22;2256;48.740;9.106;2023-06-14T00:14:40;13.80;86.80
4487;DHT22;2256;48.740;9.106;2023-06-14T00:17:07;13.70;87.10
4487;DHT22;2256;48.740;9.106;2023-06-14T00:19:34;13.70;87.50
4487;DHT22;2256;48.740;9.106;2023-06-14T00:22:02;13.70;87.70
4487;DHT22;2256;48.740;9.106;2023-06-14T00:24:29;13.60;88.50
4487;DHT22;2256;48.740;9.106;2023-06-14T00:26:55;13.60;88.60
4487;DHT22;2256;48.740;9.106;2023-06-14T00:29:23;13.60;88.10
4487;DHT22;2256;48.740;9.106;2023-06-14T00:31:51;13.60;88.20
4487;DHT22;2256;48.740;9.106;2023-06-14T00:34:17;13.60;88.40
4487;DHT22;2256;48.740;9.106;2023-06-14T00:36:45;13.50;88.50
4487;DHT22;2256;48.740;9.106;2023-06-14T00:39:12;13.50;88.60
4487;DHT22;2256;48.740;9.106;2023-06-14T00:41:39;13.50;88.00
4487;DHT22;2256;48.740;9.106;2023-06-14T00:44:06;13.50;88.60
4487;DHT22;2256;48.740;9.106;2023-06-14T00:46:34;13.50;88.80
4487;DHT22;2256;48.740;9.106;2023-06-14T00:49:01;13.40;89.30
4487;DHT22;2256;48.740;9.106;2023-06-14T00:51:28;13.40;90.00
4487;DHT22;2256;48.740;9.106;2023-06-14T00:53:55;13.40;89.70
4487;DHT22;2256;48.740;9.106;2023-06-14T00:56:22;13.30;90.00
4487;DHT22;2256;48.740;9.106;2023-06-14T00:58:50;13.40;89.80
4487;DHT22;2256;48.740;9.106;2023-06-14T01:01:17;13.40;89.30
4487;DHT22;2256;48.740;9.106;2023-06-14T01:03:46;13.40;89.20
4487;DHT22;2256;48.740;9.106;2023-06-14T01:06:19;13.40;89.40
4487;DHT22;2256;48.740;9.106;2023-06-14T01:09:03;13.30;89.20
4487;DHT22;2256;48.740;9.106;2023-06-14T01:11:40;13.30;87.80
4487;DHT22;2256;48.740;9.106;2023-06-14T01:14:10;13.20;88.30
4487;DHT22;2256;48.740;9.106;2023-06-14T01:16:39;13.10;88.50
4487;DHT22;2256;48.740;9.106;2023-06-14T01:19:10;13.10;88.30
4487;DHT22;2256;48.740;9.106;2023-06-14T01:21:39;13.10;88.40
4487;DHT22;2256;48.740;9.106;2023-06-14T01:24:08;13.00;88.30
4487;DHT22;2256;48.740;9.106;2023-06-14T01:26:36;13.00;87.90
4487;DHT22;2256;48.740;9.106;2023-06-14T01:29:05;12.90;87.40
4487;DHT22;2256;48.740;9.106;2023-06-14T01:31:34;12.70;87.60
4487;DHT22;2256;48.740;9.106;2023-06-14T01:34:07;12.60;88.00
4487;DHT22;2256;48.740;9.106;2023-06-14T01:36:36;12.60;87.90
4487;DHT22;2256;48.740;9.106;2023-06-14T01:39:08;12.70;87.90
4487;DHT22;2256;48.740;9.106;2023-06-14T01:41:37;12.70;87.60
4487;DHT22;2256;48.740;9.106;2023-06-14T01:44:06;12.70;87.80
4487;DHT22;2256;48.740;9.106;2023-06-14T01:46:33;12.70;88.40
4487;DHT22;2256;48.740;9.106;2023-06-14T01:48:59;12.70;88.60
4487;DHT22;2256;48.740;9.106;2023-06-14T01:51:26;12.70;88.60
4487;DHT22;2256;48.740;9.106;2023-06-14T01:53:53;12.60;88.30
4487;DHT22;2256;48.740;9.106;2023-06-14T01:56:22;12.60;88.60
4487;DHT22;2256;48.740;9.106;2023-06-14T01:58:49;12.60;89.70
4487;DHT22;2256;48.740;9.106;2023-06-14T02:01:17;12.50;90.20
4487;DHT22;2256;48.740;9.106;2023-06-14T02:03:44;12.50;89.80
4487;DHT22;2256;48.740;9.106;2023-06-14T02:06:12;12.50;88.80
4487;DHT22;2256;48.740;9.106;2023-06-14T02:08:39;12.50;88.90
4487;DHT22;2256;48.740;9.106;2023-06-14T02:11:06;12.40;88.80
4487;DHT22;2256;48.740;9.106;2023-06-14T02:13:34;12.30;89.10
4487;DHT22;2256;48.740;9.106;2023-06-14T02:16:01;12.20;89.80
4487;DHT22;2256;48.740;9.106;2023-06-14T02:18:28;12.20;90.10
4487;DHT22;2256;48.740;9.106;2023-06-14T02:20:55;12.20;90.10
4487;DHT22;2256;48.740;9.106;2023-06-14T02:23:22;12.20;90.50
4487;DHT22;2256;48.740;9.106;2023-06-14T02:25:51;12.10;90.50
4487;DHT22;2256;48.740;9.106;2023-06-14T02:28:18;12.10;90.60
4487;DHT22;2256;48.740;9.106;2023-06-14T02:30:47;12.10;90.40
4487;DHT22;2256;48.740;9.106;2023-06-14T02:33:14;12.10;90.10
4487;DHT22;2256;48.740;9.106;2023-06-14T02:35:41;12.10;90.10
4487;DHT22;2256;48.740;9.106;2023-06-14T02:38:07;12.10;90.50
4487;DHT22;2256;48.740;9.106;2023-06-14T02:40:34;12.10;90.80
4487;DHT22;2256;48.740;9.106;2023-06-14T02:43:01;12.10;90.90
4487;DHT22;2256;48.740;9.106;2023-06-14T02:45:28;12.00;91.00
4487;DHT22;2256;48.740;9.106;2023-06-14T02:47:56;12.00;90.80
4487;DHT22;2256;48.740;9.106;2023-06-14T02:50:23;12.10;90.40
4487;DHT22;2256;48.740;9.106;2023-06-14T02:52:51;12.10;90.40
4487;DHT22;2256;48.740;9.106;2023-06-14T02:55:21;11.90;90.50
4487;DHT22;2256;48.740;9.106;2023-06-14T02:57:48;11.90;90.50
4487;DHT22;2256;48.740;9.106;2023-06-14T03:00:15;11.90;90.50
4487;DHT22;2256;48.740;9.106;2023-06-14T03:02:43;11.90;90.80
4487;DHT22;2256;48.740;9.106;2023-06-14T03:05:12;11.80;90.80
4487;DHT22;2256;48.740;9.106;2023-06-14T03:07:39;11.80;90.90
4487;DHT22;2256;48.740;9.106;2023-06-14T03:10:08;11.80;90.60
4487;DHT22;2256;48.740;9.106;2023-06-14T03:12:35;11.80;90.50
4487;DHT22;2256;48.740;9.106;2023-06-14T03:15:03;11.80;90.60
4487;DHT22;2256;48.740;9.106;2023-06-14T03:17:29;11.70;90.50
4487;DHT22;2256;48.740;9.106;2023-06-14T03:19:59;11.70;90.60
4487;DHT22;2256;48.740;9.106;2023-06-14T03:22:27;11.70;90.70
4487;DHT22;2256;48.740;9.106;2023-06-14T03:24:54;11.60;90.80
4487;DHT22;2256;48.740;9.106;2023-06-14T03:27:20;11.50;91.00
4487;DHT22;2256;48.740;9.106;2023-06-14T03:29:47;11.50;91.00
4487;DHT22;2256;48.740;9.106;2023-06-14T03:32:14;11.60;91.30
4487;DHT22;2256;48.740;9.106;2023-06-14T03:34:41;11.60;91.40
4487;DHT22;2256;48.740;9.106;2023-06-14T03:37:10;11.70;91.60
4487;DHT22;2256;48.740;9.106;2023-06-14T03:39:38;11.70;91.80
4487;DHT22;2256;48.740;9.106;2023-06-14T03:42:12;11.70;91.90
4487;DHT22;2256;48.740;9.106;2023-06-14T03:44:39;11.80;92.10
4487;DHT22;2256;48.740;9.106;2023-06-14T03:47:06;11.80;92.10
4487;DHT22;2256;48.740;9.106;2023-06-14T03:49:33;11.90;92.10
4487;DHT22;2256;48.740;9.106;2023-06-14T03:52:00;11.90;91.80
4487;DHT22;2256;48.740;9.106;2023-06-14T03:54:28;11.90;91.60
4487;DHT22;2256;48.740;9.106;2023-06-14T03:56:59;12.00;91.80
4487;DHT22;2256;48.740;9.106;2023-06-14T03:59:26;12.00;91.60
4487;DHT22;2256;48.740;9.106;2023-06-14T04:01:54;12.10;91.60
4487;DHT22;2256;48.740;9.106;2023-06-14T04:04:21;12.20;91.50
4487;DHT22;2256;48.740;9.106;2023-06-14T04:06:55;12.20;91.40
4487;DHT22;2256;48.740;9.106;2023-06-14T04:09:22;12.20;91.40
4487;DHT22;2256;48.740;9.106;2023-06-14T04:11:50;12.30;91.20
4487;DHT22;2256;48.740;9.106;2023-06-14T04:14:19;12.30;91.20
4487;DHT22;2256;48.740;9.106;2023-06-14T04:16:46;12.40;91.30
4487;DHT22;2256;48.740;9.106;2023-06-14T04:19:13;12.40;91.50
4487;DHT22;2256;48.740;9.106;2023-06-14T04:21:40;12.40;91.30
4487;DHT22;2256;48.740;9.106;2023-06-14T04:24:07;12.40;91.20
4487;DHT22;2256;48.740;9.106;2023-06-14T04:26:39;12.30;91.20
4487;DHT22;2256;48.740;9.106;2023-06-14T04:29:09;12.40;90.80
4487;DHT22;2256;48.740;9.106;2023-06-14T04:31:41;12.50;90.70
4487;DHT22;2256;48.740;9.106;2023-06-14T04:34:07;12.50;90.70
4487;DHT22;2256;48.740;9.106;2023-06-14T04:36:34;12.60;90.60
4487;DHT22;2256;48.740;9.106;2023-06-14T04:39:03;12.50;90.50
4487;DHT22;2256;48.740;9.106;2023-06-14T04:41:31;12.60;90.80
4487;DHT22;2256;48.740;9.106;2023-06-14T04:43:58;12.50;91.10
4487;DHT22;2256;48.740;9.106;2023-06-14T04:46:27;12.60;91.10
4487;DHT22;2256;48.740;9.106;2023-06-14T04:48:57;12.70;91.20
4487;DHT22;2256;48.740;9.106;2023-06-14T04:51:27;12.70;91.00
4487;DHT22;2256;48.740;9.106;2023-06-14T04:53:59;12.70;90.90
4487;DHT22;2256;48.740;9.106;2023-06-14T04:56:26;12.80;90.90
4487;DHT22;2256;48.740;9.106;2023-06-14T04:58:55;12.90;90.70
4487;DHT22;2256;48.740;9.106;2023-06-14T05:01:22;13.00;90.70
4487;DHT22;2256;48.740;9.106;2023-06-14T05:03:51;13.10;90.50
4487;DHT22;2256;48.740;9.106;2023-06-14T05:06:22;13.30;90.60
4487;DHT22;2256;48.740;9.106;2023-06-14T05:08:49;13.40;90.70
4487;DHT22;2256;48.740;9.106;2023-06-14T05:11:19;13.40;90.60
4487;DHT22;2256;48.740;9.106;2023-06-14T05:13:45;13.60;90.30
4487;DHT22;2256;48.740;9.106;2023-06-14T05:16:12;13.60;90.30
4487;DHT22;2256;48.740;9.106;2023-06-14T05:18:41;13.60;90.60
4487;DHT22;2256;48.740;9.106;2023-06-14T05:21:07;13.70;91.00
4487;DHT22;2256;48.740;9.106;2023-06-14T05:23:36;13.80;91.40
4487;DHT22;2256;48.740;9.106;2023-06-14T05:26:02;14.20;90.80
4487;DHT22;2256;48.740;9.106;2023-06-14T05:28:30;14.50;88.70
4487;DHT22;2256;48.740;9.106;2023-06-14T05:30:57;14.70;89.20
4487;DHT22;2256;48.740;9.106;2023-06-14T05:33:24;15.00;88.50
4487;DHT22;2256;48.740;9.106;2023-06-14T05:35:51;15.30;88.50
4487;DHT22;2256;48.740;9.106;2023-06-14T05:38:18;15.40;87.30
4487;DHT22;2256;48.740;9.106;2023-06-14T05:40:46;15.70;91.60
4487;DHT22;2256;48.740;9.106;2023-06-14T05:43:14;16.00;91.10
4487;DHT22;2256;48.740;9.106;2023-06-14T05:45:40;16.20;90.10
4487;DHT22;2256;48.740;9.106;2023-06-14T05:48:07;16.40;90.20
4487;DHT22;2256;48.740;9.106;2023-06-14T05:50:34;16.50;86.70
4487;DHT22;2256;48.740;9.106;2023-06-14T05:53:08;16.60;87.20
4487;DHT22;2256;48.740;9.106;2023-06-14T05:55:35;16.80;87.30
4487;DHT22;2256;48.740;9.106;2023-06-14T05:58:03;16.80;83.30
4487;DHT22;2256;48.740;9.106;2023-06-14T06:00:30;17.00;82.70
4487;DHT22;2256;48.740;9.106;2023-06-14T06:02:57;17.10;82.40
4487;DHT22;2256;48.740;9.106;2023-06-14T06:05:24;17.20;82.70
4487;DHT22;2256;48.740;9.106;2023-06-14T06:07:51;17.40;80.70
4487;DHT22;2256;48.740;9.106;2023-06-14T06:10:18;17.40;82.20
4487;DHT22;2256;48.740;9.106;2023-06-14T06:12:45;17.50;81.50
4487;DHT22;2256;48.740;9.106;2023-06-14T06:15:14;17.50;82.00
4487;DHT22;2256;48.740;9.106;2023-06-14T06:17:42;17.70;80.20
4487;DHT22;2256;48.740;9.106;2023-06-14T06:20:09;17.90;81.00
4487;DHT22;2256;48.740;9.106;2023-06-14T06:22:37;18.00;79.00
4487;DHT22;2256;48.740;9.106;2023-06-14T06:25:04;18.20;78.70
4487;DHT22;2256;48.740;9.106;2023-06-14T06:27:34;18.30;79.00
4487;DHT22;2256;48.740;9.106;2023-06-14T06:30:04;18.50;79.20
4487;DHT22;2256;48.740;9.106;2023-06-14T06:32:32;19.00;79.30
4487;DHT22;2256;48.740;9.106;2023-06-14T06:34:59;19.90;78.20
4487;DHT22;2256;48.740;9.106;2023-06-14T06:37:26;21.10;76.50
4487;DHT22;2256;48.740;9.106;2023-06-14T06:39:53;22.00;75.70
4487;DHT22;2256;48.740;9.106;2023-06-14T06:42:20;22.90;71.70
4487;DHT22;2256;48.740;9.106;2023-06-14T06:44:46;23.10;70.00
4487;DHT22;2256;48.740;9.106;2023-06-14T06:47:13;23.40;69.80
4487;DHT22;2256;48.740;9.106;2023-06-14T06:49:42;23.90;70.30
4487;DHT22;2256;48.740;9.106;2023-06-14T06:52:09;24.30;68.60
4487;DHT22;2256;48.740;9.106;2023-06-14T06:54:36;24.50;68.70
4487;DHT22;2256;48.740;9.106;2023-06-14T06:57:03;25.00;67.90
4487;DHT22;2256;48.740;9.106;2023-06-14T06:59:31;25.00;67.00
4487;DHT22;2256;48.740;9.106;2023-06-14T07:01:58;25.10;66.60
4487;DHT22;2256;48.740;9.106;2023-06-14T07:04:25;25.30;67.10
4487;DHT22;2256;48.740;9.106;2023-06-14T07:06:53;25.60;66.20
4487;DHT22;2256;48.740;9.106;2023-06-14T07:09:20;25.70;66.00
4487;DHT22;2256;48.740;9.106;2023-06-14T07:11:48;26.10;64.90
4487;DHT22;2256;48.740;9.106;2023-06-14T07:14:15;26.50;65.00
4487;DHT22;2256;48.740;9.106;2023-06-14T07:16:41;26.60;65.00
4487;DHT22;2256;48.740;9.106;2023-06-14T07:19:08;26.90;64.50
4487;DHT22;2256;48.740;9.106;2023-06-14T07:21:36;27.20;64.00
4487;DHT22;2256;48.740;9.106;2023-06-14T07:24:05;26.90;63.30
4487;DHT22;2256;48.740;9.106;2023-06-14T07:26:33;26.60;64.90
4487;DHT22;2256;48.740;9.106;2023-06-14T07:29:00;26.90;63.70
4487;DHT22;2256;48.740;9.106;2023-06-14T07:31:27;27.00;63.00
4487;DHT22;2256;48.740;9.106;2023-06-14T07:33:54;26.90;63.20
4487;DHT22;2256;48.740;9.106;2023-06-14T07:36:21;26.70;63.20
4487;DHT22;2256;48.740;9.106;2023-06-14T07:38:48;26.70;63.30
4487;DHT22;2256;48.740;9.106;2023-06-14T07:41:16;26.90;63.30
4487;DHT22;2256;48.740;9.106;2023-06-14T07:43:43;27.10;64.70
4487;DHT22;2256;48.740;9.106;2023-06-14T07:46:10;27.20;65.50
4487;DHT22;2256;48.740;9.106;2023-06-14T07:48:36;27.20;64.30
4487;DHT22;2256;48.740;9.106;2023-06-14T07:51:05;27.30;63.20
4487;DHT22;2256;48.740;9.106;2023-06-14T07:53:32;27.10;64.40
4487;DHT22;2256;48.740;9.106;2023-06-14T07:55:59;27.60;63.90
4487;DHT22;2256;48.740;9.106;2023-06-14T07:58:29;27.70;63.50
4487;DHT22;2256;48.740;9.106;2023-06-14T08:00:55;27.60;64.40
4487;DHT22;2256;48.740;9.106;2023-06-14T08:03:22;27.80;63.70
4487;DHT22;2256;48.740;9.106;2023-06-14T08:05:49;27.80;64.50
4487;DHT22;2256;48.740;9.106;2023-06-14T08:08:17;27.80;63.70
4487;DHT22;2256;48.740;9.106;2023-06-14T08:10:44;27.40;62.10
4487;DHT22;2256;48.740;9.106;2023-06-14T08:13:10;27.00;62.60
4487;DHT22;2256;48.740;9.106;2023-06-14T08:15:39;26.70;62.90
4487;DHT22;2256;48.740;9.106;2023-06-14T08:18:05;26.70;62.90
4487;DHT22;2256;48.740;9.106;2023-06-14T08:20:32;26.60;62.50
4487;DHT22;2256;48.740;9.106;2023-06-14T08:23:01;26.60;62.70
4487;DHT22;2256;48.740;9.106;2023-06-14T08:25:29;26.60;63.00
4487;DHT22;2256;48.740;9.106;2023-06-14T08:27:56;27.10;62.90
4487;DHT22;2256;48.740;9.106;2023-06-14T08:30:23;27.30;61.60
4487;DHT22;2256;48.740;9.106;2023-06-14T08:32:51;27.30;62.70
4487;DHT22;2256;48.740;9.106;2023-06-14T08:35:20;27.30;63.10
4487;DHT22;2256;48.740;9.106;2023-06-14T08:37:47;26.90;63.20
4487;DHT22;2256;48.740;9.106;2023-06-14T08:40:19;26.60;63.00
4487;DHT22;2256;48.740;9.106;2023-06-14T08:42:50;26.70;63.90
4487;DHT22;2256;48.740;9.106;2023-06-14T08:45:17;27.10;63.00
4487;DHT22;2256;48.740;9.106;2023-06-14T08:47:44;26.80;63.90
4487;DHT22;2256;48.740;9.106;2023-06-14T08:50:13;26.50;64.70
4487;DHT22;2256;48.740;9.106;2023-06-14T08:52:45;26.40;65.30
4487;DHT22;2256;48.740;9.106;2023-06-14T08:55:16;26.60;65.60
4487;DHT22;2256;48.740;9.106;2023-06-14T08:57:46;26.40;65.70
4487;DHT22;2256;48.740;9.106;2023-06-14T09:00:15;26.30;66.10
4487;DHT22;2256;48.740;9.106;2023-06-14T09:02:42;26.60;66.60
4487;DHT22;2256;48.740;9.106;2023-06-14T09:05:11;26.70;66.10
4487;DHT22;2256;48.740;9.106;2023-06-14T09:07:39;26.70;65.50
4487;DHT22;2256;48.740;9.106;2023-06-14T09:10:08;27.10;65.00
4487;DHT22;2256;48.740;9.106;2023-06-14T09:12:36;27.20;64.90
4487;DHT22;2256;48.740;9.106;2023-06-14T09:15:04;26.90;65.30
4487;DHT22;2256;48.740;9.106;2023-06-14T09:17:32;26.60;65.50
4487;DHT22;2256;48.740;9.106;2023-06-14T09:20:00;26.70;66.00
4487;DHT22;2256;48.740;9.106;2023-06-14T09:22:30;26.80;65.60
4487;DHT22;2256;48.740;9.106;2023-06-14T09:24:57;26.50;66.00
4487;DHT22;2256;48.740;9.106;2023-06-14T09:27:25;26.40;65.90
4487;DHT22;2256;48.740;9.106;2023-06-14T09:29:53;26.70;65.00
4487;DHT22;2256;48.740;9.106;2023-06-14T09:32:20;26.70;65.20
4487;DHT22;2256;48.740;9.106;2023-06-14T09:34:47;26.90;65.40
4487;DHT22;2256;48.740;9.106;2023-06-14T09:37:27;27.00;64.20
4487;DHT22;2256;48.740;9.106;2023-06-14T09:39:56;26.60;66.00
4487;DHT22;2256;48.740;9.106;2023-06-14T09:42:23;26.90;65.80
4487;DHT22;2256;48.740;9.106;2023-06-14T09:44:52;27.50;63.60
4487;DHT22;2256;48.740;9.106;2023-06-14T09:47:20;27.80;63.40
4487;DHT22;2256;48.740;9.106;2023-06-14T09:49:47;27.70;64.40
4487;DHT22;2256;48.740;9.106;2023-06-14T09:52:15;27.50;65.20
4487;DHT22;2256;48.740;9.106;2023-06-14T09:54:43;27.30;63.00
4487;DHT22;2256;48.740;9.106;2023-06-14T09:57:14;27.00;62.40
4487;DHT22;2256;48.740;9.106;2023-06-14T09:59:42;26.40;64.30
4487;DHT22;2256;48.740;9.106;2023-06-14T10:02:12;26.90;64.60
4487;DHT22;2256;48.740;9.106;2023-06-14T10:04:43;27.60;63.50
4487;DHT22;2256;48.740;9.106;2023-06-14T10:07:14;28.00;62.50
4487;DHT22;2256;48.740;9.106;2023-06-14T10:09:42;27.70;60.50
4487;DHT22;2256;48.740;9.106;2023-06-14T10:12:16;27.30;62.00
4487;DHT22;2256;48.740;9.106;2023-06-14T10:14:47;27.10;61.80
4487;DHT22;2256;48.740;9.106;2023-06-14T10:17:22;26.60;63.70
4487;DHT22;2256;48.740;9.106;2023-06-14T10:19:55;26.70;64.20
4487;DHT22;2256;48.740;9.106;2023-06-14T10:22:29;27.00;60.30
4487;DHT22;2256;48.740;9.106;2023-06-14T10:24:56;26.90;61.10
4487;DHT22;2256;48.740;9.106;2023-06-14T10:27:24;26.60;61.60
4487;DHT22;2256;48.740;9.106;2023-06-14T10:30:06;26.80;60.70
4487;DHT22;2256;48.740;9.106;2023-06-14T10:32:34;26.80;61.60
4487;DHT22;2256;48.740;9.106;2023-06-14T10:35:04;26.50;60.80
4487;DHT22;2256;48.740;9.106;2023-06-14T10:37:31;26.30;61.40
4487;DHT22;2256;48.740;9.106;2023-06-14T10:39:58;25.90;61.60
4487;DHT22;2256;48.740;9.106;2023-06-14T10:42:32;26.10;62.60
4487;DHT22;2256;48.740;9.106;2023-06-14T10:45:00;26.40;60.80
4487;DHT22;2256;48.740;9.106;2023-06-14T10:47:28;26.70;59.30
4487;DHT22;2256;48.740;9.106;2023-06-14T10:49:56;26.60;60.90
4487;DHT22;2256;48.740;9.106;2023-06-14T10:52:26;25.80;60.80
4487;DHT22;2256;48.740;9.106;2023-06-14T10:55:08;25.30;60.30
4487;DHT22;2256;48.740;9.106;2023-06-14T10:57:39;24.60;62.00
4487;DHT22;2256;48.740;9.106;2023-06-14T11:00:07;24.20;61.70
4487;DHT22;2256;48.740;9.106;2023-06-14T11:05:51;24.20;63.70
4487;DHT22;2256;48.740;9.106;2023-06-14T11:08:40;24.80;64.60
4487;DHT22;2256;48.740;9.106;2023-06-14T11:11:12;25.00;64.40
4487;DHT22;2256;48.740;9.106;2023-06-14T11:13:42;24.70;64.80
4487;DHT22;2256;48.740;9.106;2023-06-14T11:16:14;24.30;66.70
4487;DHT22;2256;48.740;9.106;2023-06-14T11:18:41;24.00;67.90
4487;DHT22;2256;48.740;9.106;2023-06-14T11:21:08;23.80;67.80
4487;DHT22;2256;48.740;9.106;2023-06-14T11:23:35;23.80;68.20
4487;DHT22;2256;48.740;9.106;2023-06-14T11:26:02;23.80;66.40
4487;DHT22;2256;48.740;9.106;2023-06-14T11:28:37;23.80;67.20
4487;DHT22;2256;48.740;9.106;2023-06-14T11:31:05;23.70;67.70
4487;DHT22;2256;48.740;9.106;2023-06-14T11:33:32;23.70;66.50
4487;DHT22;2256;48.740;9.106;2023-06-14T11:36:01;23.50;66.80
4487;DHT22;2256;48.740;9.106;2023-06-14T11:38:29;23.40;67.40
4487;DHT22;2256;48.740;9.106;2023-06-14T11:40:59;23.70;65.80
4487;DHT22;2256;48.740;9.106;2023-06-14T11:43:26;24.20;66.90
4487;DHT22;2256;48.740;9.106;2023-06-14T11:45:54;24.70;65.40
4487;DHT22;2256;48.740;9.106;2023-06-14T11:48:22;25.00;64.40
4487;DHT22;2256;48.740;9.106;2023-06-14T11:50:50;25.30;64.20
4487;DHT22;2256;48.740;9.106;2023-06-14T11:53:18;25.50;62.40
4487;DHT22;2256;48.740;9.106;2023-06-14T11:55:45;25.70;63.50
4487;DHT22;2256;48.740;9.106;2023-06-14T11:58:13;25.70;62.80
4487;DHT22;2256;48.740;9.106;2023-06-14T12:00:40;25.30;61.60
4487;DHT22;2256;48.740;9.106;2023-06-14T12:03:07;25.10;61.60
4487;DHT22;2256;48.740;9.106;2023-06-14T12:05:35;25.00;62.30
4487;DHT22;2256;48.740;9.106;2023-06-14T12:08:03;25.10;63.70
4487;DHT22;2256;48.740;9.106;2023-06-14T12:10:39;25.30;63.20
4487;DHT22;2256;48.740;9.106;2023-06-14T12:13:06;25.70;62.40
4487;DHT22;2256;48.740;9.106;2023-06-14T12:15:33;25.90;62.10
4487;DHT22;2256;48.740;9.106;2023-06-14T12:18:00;26.20;62.20
4487;DHT22;2256;48.740;9.106;2023-06-14T12:20:29;26.60;61.10
4487;DHT22;2256;48.740;9.106;2023-06-14T12:22:59;26.70;60.30
4487;DHT22;2256;48.740;9.106;2023-06-14T12:25:31;26.10;60.40
4487;DHT22;2256;48.740;9.106;2023-06-14T12:27:58;25.80;61.00
4487;DHT22;2256;48.740;9.106;2023-06-14T12:30:25;25.60;61.90
4487;DHT22;2256;48.740;9.106;2023-06-14T12:32:52;25.50;61.50
4487;DHT22;2256;48.740;9.106;2023-06-14T12:35:19;25.00;62.20
4487;DHT22;2256;48.740;9.106;2023-06-14T12:37:46;24.70;61.90
4487;DHT22;2256;48.740;9.106;2023-06-14T12:40:14;24.70;63.30
4487;DHT22;2256;48.740;9.106;2023-06-14T12:42:42;24.90;63.30
4487;DHT22;2256;48.740;9.106;2023-06-14T12:45:09;25.20;62.70
4487;DHT22;2256;48.740;9.106;2023-06-14T12:47:36;25.70;61.60
4487;DHT22;2256;48.740;9.106;2023-06-14T12:50:04;26.10;60.70
4487;DHT22;2256;48.740;9.106;2023-06-14T12:52:30;26.30;60.00
4487;DHT22;2256;48.740;9.106;2023-06-14T12:55:02;26.70;59.20
4487;DHT22;2256;48.740;9.106;2023-06-14T12:57:31;26.90;59.00
4487;DHT22;2256;48.740;9.106;2023-06-14T12:59:59;26.70;58.80
4487;DHT22;2256;48.740;9.106;2023-06-14T13:02:26;26.60;60.70
4487;DHT22;2256;48.740;9.106;2023-06-14T13:04:54;26.60;60.00
4487;DHT22;2256;48.740;9.106;2023-06-14T13:07:22;27.00;60.30
4487;DHT22;2256;48.740;9.106;2023-06-14T13:09:48;27.10;59.00
4487;DHT22;2256;48.740;9.106;2023-06-14T13:12:15;26.90;60.60
4487;DHT22;2256;48.740;9.106;2023-06-14T13:14:44;26.70;60.50
4487;DHT22;2256;48.740;9.106;2023-06-14T13:17:11;26.30;59.70
4487;DHT22;2256;48.740;9.106;2023-06-14T13:19:37;25.80;59.30
4487;DHT22;2256;48.740;9.106;2023-06-14T13:22:04;25.40;60.10
4487;DHT22;2256;48.740;9.106;2023-06-14T13:24:31;25.00;61.00
4487;DHT22;2256;48.740;9.106;2023-06-14T13:26:58;25.00;62.50
4487;DHT22;2256;48.740;9.106;2023-06-14T13:29:25;25.40;61.10
4487;DHT22;2256;48.740;9.106;2023-06-14T13:31:54;25.60;60.70
4487;DHT22;2256;48.740;9.106;2023-06-14T13:34:21;25.70;61.10
4487;DHT22;2256;48.740;9.106;2023-06-14T13:36:48;25.70;61.60
4487;DHT22;2256;48.740;9.106;2023-06-14T13:39:16;26.00;61.80
4487;DHT22;2256;48.740;9.106;2023-06-14T13:41:42;26.30;60.70
4487;DHT22;2256;48.740;9.106;2023-06-14T13:44:09;26.10;60.00
4487;DHT22;2256;48.740;9.106;2023-06-14T13:46:39;25.60;60.90
4487;DHT22;2256;48.740;9.106;2023-06-14T13:49:09;25.50;62.40
4487;DHT22;2256;48.740;9.106;2023-06-14T13:51:37;25.20;62.60
4487;DHT22;2256;48.740;9.106;2023-06-14T13:54:04;24.70;61.90
4487;DHT22;2256;48.740;9.106;2023-06-14T13:56:31;24.30;61.80
4487;DHT22;2256;48.740;9.106;2023-06-14T13:58:58;24.10;62.90
4487;DHT22;2256;48.740;9.106;2023-06-14T14:01:25;23.90;63.40
4487;DHT22;2256;48.740;9.106;2023-06-14T14:03:54;24.30;63.20
4487;DHT22;2256;48.740;9.106;2023-06-14T14:06:22;24.70;62.50
4487;DHT22;2256;48.740;9.106;2023-06-14T14:08:49;25.00;62.20
4487;DHT22;2256;48.740;9.106;2023-06-14T14:11:16;25.40;61.30
4487;DHT22;2256;48.740;9.106;2023-06-14T14:13:43;25.50;60.00
4487;DHT22;2256;48.740;9.106;2023-06-14T14:16:10;25.30;60.20
4487;DHT22;2256;48.740;9.106;2023-06-14T14:18:38;25.20;60.70
4487;DHT22;2256;48.740;9.106;2023-06-14T14:21:06;25.10;61.90
4487;DHT22;2256;48.740;9.106;2023-06-14T14:23:35;25.30;60.70
4487;DHT22;2256;48.740;9.106;2023-06-14T14:26:03;25.20;60.90
4487;DHT22;2256;48.740;9.106;2023-06-14T14:28:30;25.30;61.90
4487;DHT22;2256;48.740;9.106;2023-06-14T14:30:58;25.40;61.70
4487;DHT22;2256;48.740;9.106;2023-06-14T14:33:25;25.70;61.00
4487;DHT22;2256;48.740;9.106;2023-06-14T14:35:52;25.90;59.40
4487;DHT22;2256;48.740;9.106;2023-06-14T14:38:18;26.10;59.40
4487;DHT22;2256;48.740;9.106;2023-06-14T14:40:48;26.40;61.20
4487;DHT22;2256;48.740;9.106;2023-06-14T14:43:15;26.60;59.70
4487;DHT22;2256;48.740;9.106;2023-06-14T14:45:42;27.10;60.10
4487;DHT22;2256;48.740;9.106;2023-06-14T14:48:09;27.40;60.10
4487;DHT22;2256;48.740;9.106;2023-06-14T14:50:36;26.90;59.70
4487;DHT22;2256;48.740;9.106;2023-06-14T14:53:03;26.60;60.40
4487;DHT22;2256;48.740;9.106;2023-06-14T14:55:31;26.30;61.60
4487;DHT22;2256;48.740;9.106;2023-06-14T14:58:01;26.30;61.60
4487;DHT22;2256;48.740;9.106;2023-06-14T15:00:29;26.20;62.00
4487;DHT22;2256;48.740;9.106;2023-06-14T15:02:55;26.30;62.30
4487;DHT22;2256;48.740;9.106;2023-06-14T15:05:22;26.20;62.50
4487;DHT22;2256;48.740;9.106;2023-06-14T15:07:49;25.70;61.80
4487;DHT22;2256;48.740;9.106;2023-06-14T15:10:16;25.30;63.40
4487;DHT22;2256;48.740;9.106;2023-06-14T15:12:43;25.40;62.20
4487;DHT22;2256;48.740;9.106;2023-06-14T15:15:11;25.40;62.30
4487;DHT22;2256;48.740;9.106;2023-06-14T15:17:38;25.10;62.30
4487;DHT22;2256;48.740;9.106;2023-06-14T15:20:06;25.10;62.20
4487;DHT22;2256;48.740;9.106;2023-06-14T15:22:33;25.00;63.20
4487;DHT22;2256;48.740;9.106;2023-06-14T15:24:59;25.30;61.90
4487;DHT22;2256;48.740;9.106;2023-06-14T15:27:26;25.30;62.50
4487;DHT22;2256;48.740;9.106;2023-06-14T15:29:53;25.20;62.50
4487;DHT22;2256;48.740;9.106;2023-06-14T15:32:21;24.90;63.30
4487;DHT22;2256;48.740;9.106;2023-06-14T15:34:48;24.60;63.70
4487;DHT22;2256;48.740;9.106;2023-06-14T15:37:15;24.30;64.40
4487;DHT22;2256;48.740;9.106;2023-06-14T15:39:42;24.10;64.80
4487;DHT22;2256;48.740;9.106;2023-06-14T15:42:09;24.00;65.10
4487;DHT22;2256;48.740;9.106;2023-06-14T15:44:37;24.00;67.20
4487;DHT22;2256;48.740;9.106;2023-06-14T15:47:04;24.30;67.00
4487;DHT22;2256;48.740;9.106;2023-06-14T15:49:32;24.60;64.90
4487;DHT22;2256;48.740;9.106;2023-06-14T15:51:59;24.80;65.50
4487;DHT22;2256;48.740;9.106;2023-06-14T15:54:26;24.80;64.20
4487;DHT22;2256;48.740;9.106;2023-06-14T15:56:53;25.00;65.20
4487;DHT22;2256;48.740;9.106;2023-06-14T15:59:20;25.10;63.40
4487;DHT22;2256;48.740;9.106;2023-06-14T16:01:46;25.20;62.90
4487;DHT22;2256;48.740;9.106;2023-06-14T16:04:23;25.30;62.30
4487;DHT22;2256;48.740;9.106;2023-06-14T16:06:51;25.30;62.10
4487;DHT22;2256;48.740;9.106;2023-06-14T16:09:18;25.30;62.20
4487;DHT22;2256;48.740;9.106;2023-06-14T16:11:45;25.40;62.50